Veracruz Airport, Mexico

8:06 AM CDT on August 22, 2014 (GMT -0500)
Gen Heriberto Jara International | Change Station
CLOSE
Current Station
Airport
Location: Veracruz Airport,
Elevation: 95 ft
Nearby Weather Stations

Elev 95 ft 19.15 °N, 96.19 °W | Updated 22 minutes ago

Mostly Cloudy
Mostly Cloudy
72 °F
Feels Like 72 °F
N
4
Wind Variable Wind from NW

Today
High -- | Low -- °F
--% Chance of Precip.
Yesterday
High -- | Low -- °F
Precip. -- in
7:07 AM 7:47 PM
Waning Crescent, 8% visible
Pressure 30.00 in
Visibility 6.0 miles
Clouds Few 1500 ft
Scattered Clouds 7000 ft
Mostly Cloudy 20000 ft
Dew Point 70 °F
Humidity 94%
Rainfall 0.05 in
Snow Depth Not available.
UV 0 out of 12
Pollen Not available.
Air Quality Not available.
Flu Activity Not available.
METAR MMVR 221244Z 31003KT 6SM FEW015 SCT070 BKN200 22/21 A3000 RMK 8/578 HZY DSNT TCU 1ST QUAD

More Conditions Fewer Conditions

Pressure 30.00 in
Visibility 6.0 miles
Clouds Few 1500 ft
Scattered Clouds 7000 ft
Mostly Cloudy 20000 ft
Dew Point 70 °F
Humidity 94%
Rainfall 0.05 in
Snow Depth Not available.
UV 0 out of 12
Pollen Not available.
Air Quality Not available.
Flu Activity Not available.
METAR MMVR 221244Z 31003KT 6SM FEW015 SCT070 BKN200 22/21 A3000 RMK 8/578 HZY DSNT TCU 1ST QUAD

More Conditions Fewer Conditions

10-Day Weather Forecast

Almanac

Astronomy

Aug. 22, 2014 Rise Set
Actual Time 7:07 AM CDT 7:47 PM CDT
Civil Twilight 6:44 AM CDT 8:09 PM CDT
Nautical Twilight 6:18 AM CDT 8:36 PM CDT
Astronomical Twilight 5:51 AM CDT 9:02 PM CDT
Moon 4:41 AM CDT 5:49 PM CDT
Length of Visible Light 13h 24m
Length of Day
12h 39m
Tomorrow will be 0m 59s shorter.
Waning Crescent, 8% of the Moon is Illuminated
Today
Waning Crescent
Aug 25
New
Sep 2
First Quarter
Sep 8
Full
Sep 15
Last Quarter

Yesterday's Extremes

Country Highs Country Lows

Community

WunderPhotos

Upload Photos

1,746,160 photos uploaded!

WunderBlogs® & News

Nearby

Snow Depth

Not available.

Earthquake Activity

City Distance Mag. Time & Date
No recent earthquake activity has been reported nearby.
Minimum magnitude displayed is 2.5.

Coastal Water Temperatures

Place Temperature
No Stations Reporting

Nearby Weather Stations